createdAt,value
2023-03-08T00:00:37.642Z,981.71
2023-03-08T00:05:37.600Z,981.82
2023-03-08T00:10:37.553Z,981.83
2023-03-08T00:15:37.653Z,981.80
2023-03-08T00:20:37.390Z,981.87
2023-03-08T00:25:37.319Z,981.86
2023-03-08T00:30:37.252Z,981.74
2023-03-08T00:35:37.358Z,981.81
2023-03-08T00:40:37.125Z,981.81
2023-03-08T00:45:37.258Z,981.84
2023-03-08T00:50:37.061Z,981.75
2023-03-08T00:55:40.590Z,981.93
2023-03-08T01:00:36.974Z,982.09
2023-03-08T01:05:36.836Z,982.14
2023-03-08T01:10:36.940Z,982.18
2023-03-08T01:15:36.831Z,981.96
2023-03-08T01:20:36.575Z,982.02
2023-03-08T01:25:36.557Z,982.03
2023-03-08T01:30:36.489Z,982.05
2023-03-08T01:35:36.548Z,981.99
2023-03-08T01:40:36.374Z,982.05
2023-03-08T01:45:36.327Z,981.97
2023-03-08T01:50:36.218Z,981.97
2023-03-08T01:55:39.302Z,982.00
2023-03-08T02:00:36.106Z,982.01
2023-03-08T02:05:36.372Z,981.99
2023-03-08T02:10:36.033Z,981.96
2023-03-08T02:15:35.872Z,981.85
2023-03-08T02:20:35.905Z,981.93
2023-03-08T02:25:35.840Z,981.91
2023-03-08T02:30:35.775Z,981.92
2023-03-08T02:35:35.657Z,981.98
2023-03-08T02:40:35.595Z,981.99
2023-03-08T02:45:35.598Z,981.86
2023-03-08T02:50:35.452Z,981.80
2023-03-08T02:55:38.525Z,981.87
2023-03-08T03:00:35.488Z,981.79
2023-03-08T03:05:35.250Z,981.79
2023-03-08T03:10:35.177Z,981.92
2023-03-08T03:15:35.209Z,981.90
2023-03-08T03:20:35.267Z,981.90
2023-03-08T03:25:34.985Z,981.78
2023-03-08T03:30:34.901Z,981.86
2023-03-08T03:35:34.950Z,981.95
2023-03-08T03:40:34.789Z,981.90
2023-03-08T03:45:34.859Z,981.94
2023-03-08T03:50:34.698Z,981.94
2023-03-08T03:55:37.778Z,981.88
2023-03-08T04:00:34.715Z,981.96
2023-03-08T04:05:34.538Z,981.85
2023-03-08T04:10:34.592Z,981.74
2023-03-08T04:15:34.550Z,981.74
2023-03-08T04:20:34.397Z,981.82
2023-03-08T04:25:34.293Z,981.82
2023-03-08T04:30:34.204Z,981.83
2023-03-08T04:35:34.192Z,981.87
2023-03-08T04:40:33.984Z,982.04
2023-03-08T04:45:34.152Z,981.96
2023-03-08T04:51:44.841Z,981.94
2023-03-08T04:56:44.792Z,981.99
2023-03-08T05:01:45.087Z,981.91
2023-03-08T05:06:44.792Z,981.87
2023-03-08T05:11:45.171Z,981.80
2023-03-08T05:16:44.651Z,981.78
2023-03-08T05:21:44.563Z,981.77
2023-03-08T05:26:44.339Z,981.76
2023-03-08T05:31:44.531Z,981.68
2023-03-08T05:36:44.498Z,981.80
2023-03-08T05:41:47.362Z,981.81
2023-03-08T05:46:44.250Z,981.69
2023-03-08T05:51:44.233Z,981.70
2023-03-08T05:56:44.064Z,981.66
2023-03-08T06:01:44.077Z,981.59
2023-03-08T06:06:43.954Z,981.58
2023-03-08T06:11:43.989Z,981.57
2023-03-08T06:16:43.746Z,981.60
2023-03-08T06:21:43.924Z,981.62
2023-03-08T06:26:43.871Z,981.62
2023-03-08T06:31:43.687Z,981.67
2023-03-08T06:36:43.508Z,981.56
2023-03-08T06:41:46.508Z,981.55
2023-03-08T06:46:43.418Z,981.56
2023-03-08T06:51:43.872Z,981.50
2023-03-08T06:56:43.228Z,981.51
2023-03-08T07:01:43.293Z,981.40
2023-03-08T07:06:43.132Z,981.36
2023-03-08T07:11:43.115Z,981.28
2023-03-08T07:16:43.090Z,981.26
2023-03-08T07:21:43.047Z,981.17
2023-03-08T07:26:43.051Z,981.20
2023-03-08T07:37:18.337Z,981.17
2023-03-08T07:42:18.008Z,981.06
2023-03-08T07:47:18.055Z,981.12
2023-03-08T07:52:17.746Z,981.07
2023-03-08T07:57:17.845Z,980.97
2023-03-08T08:02:17.940Z,980.99
2023-03-08T08:07:17.704Z,980.92
2023-03-08T08:12:17.573Z,980.94
2023-03-08T08:17:17.472Z,980.85
2023-03-08T08:22:17.338Z,980.84
2023-03-08T08:27:20.409Z,980.58
2023-03-08T08:32:17.295Z,980.46
2023-03-08T08:37:17.407Z,980.38
2023-03-08T08:42:17.214Z,980.37
2023-03-08T08:47:17.424Z,980.26
2023-03-08T08:52:24.893Z,980.22
2023-03-08T08:57:16.915Z,980.09
2023-03-08T09:02:16.890Z,980.11
2023-03-08T09:10:17.053Z,980.07
2023-03-08T09:15:17.090Z,979.96
2023-03-08T09:20:17.011Z,979.90
2023-03-08T09:25:16.923Z,979.85
2023-03-08T09:30:16.872Z,979.81
2023-03-08T09:35:16.667Z,979.76
2023-03-08T09:41:45.885Z,979.68
2023-03-08T09:48:03.357Z,979.59
2023-03-08T09:53:03.074Z,979.46
2023-03-08T09:58:03.074Z,979.38
2023-03-08T10:03:02.996Z,979.24
2023-03-08T10:08:02.932Z,979.10
2023-03-08T10:13:02.753Z,978.99
2023-03-08T10:18:02.738Z,978.86
2023-03-08T10:23:02.714Z,978.80
2023-03-08T10:28:02.689Z,978.68
2023-03-08T10:33:02.539Z,978.53
2023-03-08T10:38:05.502Z,978.37
2023-03-08T10:43:02.461Z,978.23
2023-03-08T10:48:02.360Z,978.08
2023-03-08T10:53:02.307Z,978.08
2023-03-08T10:58:02.314Z,977.96
2023-03-08T11:03:02.201Z,977.90
2023-03-08T11:08:02.226Z,977.77
2023-03-08T11:13:02.094Z,977.72
2023-03-08T11:18:02.028Z,977.67
2023-03-08T11:23:01.907Z,977.64
2023-03-08T11:28:01.942Z,977.59
2023-03-08T11:33:02.018Z,977.48
2023-03-08T11:38:04.746Z,977.52
2023-03-08T11:43:01.683Z,977.42
2023-03-08T11:48:01.604Z,977.31
2023-03-08T11:53:01.644Z,977.30
2023-03-08T11:58:01.548Z,977.28
2023-03-08T12:03:01.365Z,977.24
2023-03-08T12:08:01.523Z,977.21
2023-03-08T12:13:01.259Z,977.12
2023-03-08T12:18:01.306Z,977.10
2023-03-08T12:23:01.206Z,977.03
2023-03-08T12:28:01.273Z,976.92
2023-03-08T12:33:01.220Z,976.85
2023-03-08T12:38:04.277Z,976.79
2023-03-08T12:43:01.025Z,976.67
2023-03-08T12:48:01.019Z,976.54
2023-03-08T12:53:08.398Z,976.51
2023-03-08T12:58:00.690Z,976.42
2023-03-08T13:03:00.797Z,976.28
2023-03-08T13:08:00.606Z,976.15
2023-03-08T13:13:00.542Z,976.10
2023-03-08T13:18:00.417Z,976.02
2023-03-08T13:23:00.380Z,976.06
2023-03-08T13:28:00.301Z,976.08
2023-03-08T13:33:00.258Z,976.01
2023-03-08T13:38:03.148Z,976.03
2023-03-08T13:43:00.133Z,975.96
2023-03-08T13:48:00.165Z,975.94
2023-03-08T13:52:59.932Z,975.89
2023-03-08T13:57:59.964Z,975.84
2023-03-08T14:02:59.818Z,975.80
2023-03-08T14:07:59.855Z,975.72
2023-03-08T14:12:59.728Z,975.71
2023-03-08T14:17:59.794Z,975.61
2023-03-08T14:22:59.600Z,975.60
2023-03-08T14:27:59.562Z,975.65
2023-03-08T14:32:59.585Z,975.56
2023-03-08T14:38:02.484Z,975.50
2023-03-08T14:42:59.335Z,975.44
2023-03-08T14:48:06.797Z,975.53
2023-03-08T14:52:59.259Z,975.40
2023-03-08T14:57:59.131Z,975.34
2023-03-08T15:02:59.175Z,975.24
2023-03-08T15:07:59.260Z,975.20
2023-03-08T15:12:58.890Z,975.28
2023-03-08T15:17:58.996Z,975.14
2023-03-08T15:22:58.825Z,975.20
2023-03-08T15:27:58.898Z,975.12
2023-03-08T15:32:59.646Z,975.21
2023-03-08T15:38:01.789Z,975.10
2023-03-08T15:42:58.536Z,975.07
2023-03-08T15:47:58.468Z,975.03
2023-03-08T15:52:58.474Z,975.15
2023-03-08T15:57:58.548Z,975.04
2023-03-08T16:02:58.341Z,975.04
2023-03-08T16:07:58.354Z,975.02
2023-03-08T16:12:58.277Z,974.93
2023-03-08T16:17:58.313Z,974.79
2023-03-08T16:22:58.157Z,974.81
2023-03-08T16:27:58.815Z,974.79
2023-03-08T16:32:57.965Z,974.76
2023-03-08T16:38:00.956Z,974.84
2023-03-08T16:42:57.943Z,974.76
2023-03-08T16:47:58.122Z,974.66
2023-03-08T16:52:57.868Z,974.66
2023-03-08T16:57:58.807Z,974.61
2023-03-08T17:02:57.566Z,974.72
2023-03-08T17:07:57.483Z,974.80
2023-03-08T17:12:57.497Z,974.80
2023-03-08T17:42:08.509Z,975.10
2023-03-08T18:34:02.924Z,975.15
2023-03-08T18:39:02.748Z,975.00
2023-03-08T18:44:03.494Z,974.97
2023-03-08T18:49:02.468Z,974.84
2023-03-08T18:54:02.672Z,974.82
2023-03-08T18:59:02.314Z,974.82
2023-03-08T19:04:02.378Z,974.75
2023-03-08T19:09:02.248Z,974.84
2023-03-08T19:14:02.647Z,974.80
2023-03-08T19:19:02.345Z,974.83
2023-03-08T19:24:05.667Z,974.79
2023-03-08T20:13:48.806Z,975.01
2023-03-08T20:18:48.420Z,974.93
